Airfield :
LOGIN :

Register | Disclaimer

   EN    FR    IT 

 










Legend :    VFR   Marginal VFR   IFR   Intensive IFR   Very Intensive IFR
Visi :
Ceiling :
>= 8 km
>= 3000ft
5 to 8 km
1000 to 3000 ft
1500m to 5 km
500 to 1000 ft
800 to 1500m
200 to 500 ft
< 800m
< 200 ft
Symbols :   Thunderstorms  Fog  Heavy snow  Heavy precipitations  Wind > 20 kt
SIGMETs :     Misc.  Thunderstorms  Icing  Turbulence  Mountain Waves  Volcanic Ashes






- Airport Elevation : 1822 ft


ETSL - Lechfeld AB

CURRENT METAR :
  • 171920Z 17005KT 9999 MIFG FEW045 09/08 Q1017 BLU+

EXPIRED METARs :
  • 171820Z 00000KT 9999 FEW045 11/10 Q1016 BLU+
  • 171720Z 15004KT 9999 FEW045 14/10 Q1016 BLU+

TAF TAF ETSL
Valid from the 17 at 20:00 until the 18 at 05:00 UTC


171900Z 1720/1805 30005KT 9999 NSW BKN050
TEMPO 1722/1805 VRB02KT 3000 MIFG FEW050
PROB30 1800/1805 VRB01KT 0500 FG BKN001 BY ETGL



MET'MAP, your aeronautical weather chart ! - Copyright ORBIFLY December 2007 - Disclaimer

ORBIFLY MET'MAP TEAM :

Programming & Development : Alexandra Zaïnal
Concept & original design : Baudouin d'Aumeries
Assistance for programming : Marc-Olivier Méhu
Technical & hardware support : Manuel Goepfert

Contact : metmap@orbifly.com




SOURCES & CREDITS :

   NOAA